Terminal Aerodrome Forecast
Issued by NWS

Home | Current Version | Previous Version | Text Only | Print | Product List | Glossary On
Versions: 1 2 3 4 5 6 7 8 9 10 11 12 13 14 15 16 17 18 19 20 21 22 23 24 25 26 27 28 29 30 31 32 33 34 35 36 37 38 39 40 41 42
000
FTUS45 KBOU 250729 AAA
TAFBJC
TAF AMD
KBJC 250729Z 2507/2606 28009KT P6SM FEW100 SCT200
     FM251500 VRB05KT P6SM FEW120 SCT200
     FM252100 27012KT P6SM VCTS SCT080CB BKN140
      TEMPO 2521/2601 VRB20G30KT -TSRA BKN080CB
     FM260100 30010KT P6SM SCT060 BKN120
      TEMPO 2601/2605 -SHRA BKN060=

USA.gov is the U.S. government's official web portal to all federal, state and local government web resources and services.